sensor_id;sensor_type;location;lat;lon;timestamp;P1;durP1;ratioP1;P2;durP2;ratioP2
18973;SDS011;9621;48.690;9.466;2022-08-19T00:00:50;25.08;;;20.23;;
18973;SDS011;9621;48.690;9.466;2022-08-19T00:03:17;24.40;;;20.92;;
18973;SDS011;9621;48.690;9.466;2022-08-19T00:05:46;24.40;;;21.17;;
18973;SDS011;9621;48.690;9.466;2022-08-19T00:08:12;25.35;;;20.45;;
18973;SDS011;9621;48.690;9.466;2022-08-19T00:10:39;24.65;;;21.98;;
18973;SDS011;9621;48.690;9.466;2022-08-19T00:13:06;25.27;;;21.00;;
18973;SDS011;9621;48.690;9.466;2022-08-19T00:15:34;24.83;;;20.42;;
18973;SDS011;9621;48.690;9.466;2022-08-19T00:18:01;23.70;;;20.63;;
18973;SDS011;9621;48.690;9.466;2022-08-19T00:20:28;25.67;;;21.25;;
18973;SDS011;9621;48.690;9.466;2022-08-19T00:22:57;23.38;;;20.45;;
18973;SDS011;9621;48.690;9.466;2022-08-19T00:25:24;24.42;;;21.00;;
18973;SDS011;9621;48.690;9.466;2022-08-19T00:27:51;29.85;;;21.50;;
18973;SDS011;9621;48.690;9.466;2022-08-19T00:30:18;24.50;;;21.80;;
18973;SDS011;9621;48.690;9.466;2022-08-19T00:32:44;25.38;;;21.80;;
18973;SDS011;9621;48.690;9.466;2022-08-19T00:35:11;26.25;;;22.52;;
18973;SDS011;9621;48.690;9.466;2022-08-19T00:37:38;25.45;;;22.25;;
18973;SDS011;9621;48.690;9.466;2022-08-19T00:40:10;28.80;;;22.00;;
18973;SDS011;9621;48.690;9.466;2022-08-19T00:42:38;27.98;;;23.52;;
18973;SDS011;9621;48.690;9.466;2022-08-19T00:45:09;29.92;;;21.90;;
18973;SDS011;9621;48.690;9.466;2022-08-19T00:47:38;31.00;;;23.27;;
18973;SDS011;9621;48.690;9.466;2022-08-19T00:50:05;25.50;;;22.55;;
18973;SDS011;9621;48.690;9.466;2022-08-19T00:52:34;29.88;;;22.70;;
18973;SDS011;9621;48.690;9.466;2022-08-19T00:55:06;28.33;;;23.67;;
18973;SDS011;9621;48.690;9.466;2022-08-19T00:57:39;27.85;;;23.25;;
18973;SDS011;9621;48.690;9.466;2022-08-19T01:00:12;28.27;;;23.23;;
18973;SDS011;9621;48.690;9.466;2022-08-19T01:02:43;29.90;;;23.05;;
18973;SDS011;9621;48.690;9.466;2022-08-19T01:05:13;28.90;;;23.27;;
18973;SDS011;9621;48.690;9.466;2022-08-19T01:07:45;30.27;;;24.58;;
18973;SDS011;9621;48.690;9.466;2022-08-19T01:10:15;31.20;;;24.38;;
18973;SDS011;9621;48.690;9.466;2022-08-19T01:12:46;30.95;;;23.92;;
18973;SDS011;9621;48.690;9.466;2022-08-19T01:15:17;32.42;;;24.45;;
18973;SDS011;9621;48.690;9.466;2022-08-19T01:17:47;31.63;;;24.40;;
18973;SDS011;9621;48.690;9.466;2022-08-19T01:20:17;30.10;;;24.50;;
18973;SDS011;9621;48.690;9.466;2022-08-19T01:22:47;29.20;;;23.17;;
18973;SDS011;9621;48.690;9.466;2022-08-19T01:25:16;30.25;;;23.63;;
18973;SDS011;9621;48.690;9.466;2022-08-19T01:27:48;32.13;;;22.85;;
18973;SDS011;9621;48.690;9.466;2022-08-19T01:30:16;33.05;;;23.13;;
18973;SDS011;9621;48.690;9.466;2022-08-19T01:32:46;26.55;;;22.10;;
18973;SDS011;9621;48.690;9.466;2022-08-19T01:35:13;29.63;;;22.13;;
18973;SDS011;9621;48.690;9.466;2022-08-19T01:37:48;32.03;;;24.05;;
18973;SDS011;9621;48.690;9.466;2022-08-19T01:40:18;27.38;;;22.98;;
18973;SDS011;9621;48.690;9.466;2022-08-19T01:42:47;29.45;;;23.55;;
18973;SDS011;9621;48.690;9.466;2022-08-19T01:45:14;26.75;;;22.20;;
18973;SDS011;9621;48.690;9.466;2022-08-19T01:47:41;31.90;;;24.65;;
18973;SDS011;9621;48.690;9.466;2022-08-19T01:50:10;30.48;;;24.05;;
18973;SDS011;9621;48.690;9.466;2022-08-19T01:52:39;29.50;;;22.85;;
18973;SDS011;9621;48.690;9.466;2022-08-19T01:55:11;30.17;;;23.90;;
18973;SDS011;9621;48.690;9.466;2022-08-19T01:57:40;28.30;;;22.30;;
18973;SDS011;9621;48.690;9.466;2022-08-19T02:00:10;28.83;;;22.80;;
18973;SDS011;9621;48.690;9.466;2022-08-19T02:02:40;27.13;;;22.83;;
18973;SDS011;9621;48.690;9.466;2022-08-19T02:05:07;30.67;;;23.70;;
18973;SDS011;9621;48.690;9.466;2022-08-19T02:07:35;29.40;;;23.52;;
18973;SDS011;9621;48.690;9.466;2022-08-19T02:10:02;29.23;;;23.15;;
18973;SDS011;9621;48.690;9.466;2022-08-19T02:12:32;33.58;;;25.02;;
18973;SDS011;9621;48.690;9.466;2022-08-19T02:15:00;30.13;;;22.48;;
18973;SDS011;9621;48.690;9.466;2022-08-19T02:17:27;30.23;;;21.88;;
18973;SDS011;9621;48.690;9.466;2022-08-19T02:19:54;27.88;;;22.15;;
18973;SDS011;9621;48.690;9.466;2022-08-19T02:22:21;31.30;;;23.25;;
18973;SDS011;9621;48.690;9.466;2022-08-19T02:24:49;28.25;;;22.30;;
18973;SDS011;9621;48.690;9.466;2022-08-19T02:27:16;29.38;;;23.00;;
18973;SDS011;9621;48.690;9.466;2022-08-19T02:29:44;28.58;;;22.42;;
18973;SDS011;9621;48.690;9.466;2022-08-19T02:32:12;32.80;;;23.48;;
18973;SDS011;9621;48.690;9.466;2022-08-19T02:34:39;34.08;;;24.05;;
18973;SDS011;9621;48.690;9.466;2022-08-19T02:37:06;28.10;;;22.88;;
18973;SDS011;9621;48.690;9.466;2022-08-19T02:39:54;30.02;;;22.63;;
18973;SDS011;9621;48.690;9.466;2022-08-19T02:42:20;32.90;;;24.00;;
18973;SDS011;9621;48.690;9.466;2022-08-19T02:44:48;31.77;;;24.23;;
18973;SDS011;9621;48.690;9.466;2022-08-19T02:47:16;26.45;;;22.70;;
18973;SDS011;9621;48.690;9.466;2022-08-19T02:49:44;33.17;;;23.92;;
18973;SDS011;9621;48.690;9.466;2022-08-19T02:52:11;31.67;;;23.98;;
18973;SDS011;9621;48.690;9.466;2022-08-19T02:54:39;30.58;;;24.35;;
18973;SDS011;9621;48.690;9.466;2022-08-19T02:57:05;30.70;;;24.58;;
18973;SDS011;9621;48.690;9.466;2022-08-19T02:59:33;30.75;;;24.10;;
18973;SDS011;9621;48.690;9.466;2022-08-19T03:02:02;33.25;;;24.40;;
18973;SDS011;9621;48.690;9.466;2022-08-19T03:04:29;35.75;;;24.67;;
18973;SDS011;9621;48.690;9.466;2022-08-19T03:06:57;32.95;;;24.30;;
18973;SDS011;9621;48.690;9.466;2022-08-19T03:09:23;31.83;;;24.02;;
18973;SDS011;9621;48.690;9.466;2022-08-19T03:11:51;32.90;;;23.48;;
18973;SDS011;9621;48.690;9.466;2022-08-19T03:14:17;29.05;;;22.67;;
18973;SDS011;9621;48.690;9.466;2022-08-19T03:16:46;31.65;;;23.27;;
18973;SDS011;9621;48.690;9.466;2022-08-19T03:19:17;31.63;;;24.42;;
18973;SDS011;9621;48.690;9.466;2022-08-19T03:21:46;29.73;;;23.58;;
18973;SDS011;9621;48.690;9.466;2022-08-19T03:24:14;34.95;;;22.77;;
18973;SDS011;9621;48.690;9.466;2022-08-19T03:26:44;28.23;;;22.92;;
18973;SDS011;9621;48.690;9.466;2022-08-19T03:29:13;31.67;;;23.77;;
18973;SDS011;9621;48.690;9.466;2022-08-19T03:31:42;29.00;;;22.88;;
18973;SDS011;9621;48.690;9.466;2022-08-19T03:34:09;28.80;;;23.10;;
18973;SDS011;9621;48.690;9.466;2022-08-19T03:36:39;29.92;;;22.48;;
18973;SDS011;9621;48.690;9.466;2022-08-19T03:39:06;34.28;;;23.08;;
18973;SDS011;9621;48.690;9.466;2022-08-19T03:41:36;29.23;;;22.95;;
18973;SDS011;9621;48.690;9.466;2022-08-19T03:44:04;31.42;;;22.45;;
18973;SDS011;9621;48.690;9.466;2022-08-19T03:46:32;31.75;;;23.65;;
18973;SDS011;9621;48.690;9.466;2022-08-19T03:49:00;31.67;;;23.13;;
18973;SDS011;9621;48.690;9.466;2022-08-19T03:51:33;29.33;;;22.60;;
18973;SDS011;9621;48.690;9.466;2022-08-19T03:54:04;31.45;;;23.17;;
18973;SDS011;9621;48.690;9.466;2022-08-19T03:56:34;34.70;;;23.58;;
18973;SDS011;9621;48.690;9.466;2022-08-19T03:59:02;32.40;;;23.45;;
18973;SDS011;9621;48.690;9.466;2022-08-19T04:01:30;35.03;;;23.95;;
18973;SDS011;9621;48.690;9.466;2022-08-19T04:04:00;33.25;;;24.10;;
18973;SDS011;9621;48.690;9.466;2022-08-19T04:06:28;31.67;;;23.13;;
18973;SDS011;9621;48.690;9.466;2022-08-19T04:08:57;32.05;;;23.77;;
18973;SDS011;9621;48.690;9.466;2022-08-19T04:11:28;31.73;;;22.73;;
18973;SDS011;9621;48.690;9.466;2022-08-19T04:13:56;32.72;;;23.60;;
18973;SDS011;9621;48.690;9.466;2022-08-19T04:16:24;36.28;;;23.45;;
18973;SDS011;9621;48.690;9.466;2022-08-19T04:18:53;32.85;;;23.75;;
18973;SDS011;9621;48.690;9.466;2022-08-19T04:21:23;29.42;;;22.48;;
18973;SDS011;9621;48.690;9.466;2022-08-19T04:23:51;28.27;;;22.27;;
18973;SDS011;9621;48.690;9.466;2022-08-19T04:26:21;27.92;;;21.67;;
18973;SDS011;9621;48.690;9.466;2022-08-19T04:28:52;34.38;;;23.48;;
18973;SDS011;9621;48.690;9.466;2022-08-19T04:31:21;33.90;;;23.88;;
18973;SDS011;9621;48.690;9.466;2022-08-19T04:33:51;32.38;;;23.92;;
18973;SDS011;9621;48.690;9.466;2022-08-19T04:36:20;35.92;;;23.45;;
18973;SDS011;9621;48.690;9.466;2022-08-19T04:38:49;31.77;;;23.75;;
18973;SDS011;9621;48.690;9.466;2022-08-19T04:41:20;30.15;;;22.50;;
18973;SDS011;9621;48.690;9.466;2022-08-19T04:44:06;32.40;;;22.52;;
18973;SDS011;9621;48.690;9.466;2022-08-19T04:46:33;30.40;;;21.88;;
18973;SDS011;9621;48.690;9.466;2022-08-19T04:49:02;32.88;;;23.23;;
18973;SDS011;9621;48.690;9.466;2022-08-19T04:51:31;33.85;;;22.85;;
18973;SDS011;9621;48.690;9.466;2022-08-19T04:53:59;32.88;;;23.85;;
18973;SDS011;9621;48.690;9.466;2022-08-19T04:56:27;30.10;;;22.65;;
18973;SDS011;9621;48.690;9.466;2022-08-19T04:58:55;29.98;;;22.33;;
18973;SDS011;9621;48.690;9.466;2022-08-19T05:01:26;36.60;;;23.17;;
18973;SDS011;9621;48.690;9.466;2022-08-19T05:03:54;31.42;;;22.60;;
18973;SDS011;9621;48.690;9.466;2022-08-19T05:06:22;30.20;;;22.30;;
18973;SDS011;9621;48.690;9.466;2022-08-19T05:08:50;33.20;;;23.10;;
18973;SDS011;9621;48.690;9.466;2022-08-19T05:11:20;34.60;;;22.50;;
18973;SDS011;9621;48.690;9.466;2022-08-19T05:13:49;33.05;;;24.40;;
18973;SDS011;9621;48.690;9.466;2022-08-19T05:16:17;30.27;;;22.80;;
18973;SDS011;9621;48.690;9.466;2022-08-19T05:18:47;32.55;;;23.92;;
18973;SDS011;9621;48.690;9.466;2022-08-19T05:21:32;31.80;;;22.58;;
18973;SDS011;9621;48.690;9.466;2022-08-19T05:24:17;30.38;;;22.60;;
18973;SDS011;9621;48.690;9.466;2022-08-19T05:26:47;33.90;;;23.13;;
18973;SDS011;9621;48.690;9.466;2022-08-19T05:29:16;29.75;;;22.83;;
18973;SDS011;9621;48.690;9.466;2022-08-19T05:31:45;33.35;;;22.73;;
18973;SDS011;9621;48.690;9.466;2022-08-19T05:34:15;35.83;;;24.02;;
18973;SDS011;9621;48.690;9.466;2022-08-19T05:36:43;31.90;;;22.08;;
18973;SDS011;9621;48.690;9.466;2022-08-19T05:39:12;33.30;;;23.67;;
18973;SDS011;9621;48.690;9.466;2022-08-19T05:41:41;30.67;;;22.23;;
18973;SDS011;9621;48.690;9.466;2022-08-19T05:44:08;31.27;;;22.85;;
18973;SDS011;9621;48.690;9.466;2022-08-19T05:46:36;33.22;;;23.75;;
18973;SDS011;9621;48.690;9.466;2022-08-19T05:49:04;31.48;;;22.58;;
18973;SDS011;9621;48.690;9.466;2022-08-19T05:51:33;34.25;;;23.95;;
18973;SDS011;9621;48.690;9.466;2022-08-19T05:54:01;33.92;;;24.15;;
18973;SDS011;9621;48.690;9.466;2022-08-19T05:56:29;33.88;;;24.52;;
18973;SDS011;9621;48.690;9.466;2022-08-19T05:58:56;30.55;;;23.23;;
18973;SDS011;9621;48.690;9.466;2022-08-19T06:01:25;34.53;;;24.90;;
18973;SDS011;9621;48.690;9.466;2022-08-19T06:03:52;33.22;;;23.83;;
18973;SDS011;9621;48.690;9.466;2022-08-19T06:06:20;32.08;;;23.90;;
18973;SDS011;9621;48.690;9.466;2022-08-19T06:08:48;32.08;;;24.08;;
18973;SDS011;9621;48.690;9.466;2022-08-19T06:11:18;33.70;;;23.35;;
18973;SDS011;9621;48.690;9.466;2022-08-19T06:13:48;30.60;;;24.08;;
18973;SDS011;9621;48.690;9.466;2022-08-19T06:16:17;33.25;;;24.65;;
18973;SDS011;9621;48.690;9.466;2022-08-19T06:18:49;31.98;;;24.13;;
18973;SDS011;9621;48.690;9.466;2022-08-19T06:21:18;35.13;;;24.33;;
18973;SDS011;9621;48.690;9.466;2022-08-19T06:23:45;38.28;;;23.83;;
18973;SDS011;9621;48.690;9.466;2022-08-19T06:26:15;34.97;;;25.50;;
18973;SDS011;9621;48.690;9.466;2022-08-19T06:28:43;32.53;;;24.60;;
18973;SDS011;9621;48.690;9.466;2022-08-19T06:31:11;32.85;;;25.17;;
18973;SDS011;9621;48.690;9.466;2022-08-19T06:33:40;36.80;;;26.27;;
18973;SDS011;9621;48.690;9.466;2022-08-19T06:36:07;38.17;;;26.40;;
18973;SDS011;9621;48.690;9.466;2022-08-19T06:38:42;38.03;;;24.75;;
18973;SDS011;9621;48.690;9.466;2022-08-19T06:41:09;38.15;;;26.08;;
18973;SDS011;9621;48.690;9.466;2022-08-19T06:43:38;36.33;;;26.60;;
18973;SDS011;9621;48.690;9.466;2022-08-19T06:46:09;35.15;;;26.17;;
18973;SDS011;9621;48.690;9.466;2022-08-19T06:48:37;35.22;;;26.60;;
18973;SDS011;9621;48.690;9.466;2022-08-19T06:51:04;38.58;;;26.70;;
18973;SDS011;9621;48.690;9.466;2022-08-19T06:53:32;33.13;;;25.90;;
18973;SDS011;9621;48.690;9.466;2022-08-19T06:56:00;37.42;;;25.88;;
18973;SDS011;9621;48.690;9.466;2022-08-19T06:58:27;37.55;;;26.35;;
18973;SDS011;9621;48.690;9.466;2022-08-19T07:00:58;37.03;;;26.83;;
18973;SDS011;9621;48.690;9.466;2022-08-19T07:03:28;39.35;;;26.73;;
18973;SDS011;9621;48.690;9.466;2022-08-19T07:05:56;37.50;;;27.30;;
18973;SDS011;9621;48.690;9.466;2022-08-19T07:08:24;38.13;;;26.50;;
18973;SDS011;9621;48.690;9.466;2022-08-19T07:10:52;33.15;;;26.42;;
18973;SDS011;9621;48.690;9.466;2022-08-19T07:13:19;34.20;;;25.65;;
18973;SDS011;9621;48.690;9.466;2022-08-19T07:15:47;38.20;;;25.70;;
18973;SDS011;9621;48.690;9.466;2022-08-19T07:18:17;35.33;;;25.50;;
18973;SDS011;9621;48.690;9.466;2022-08-19T07:20:46;37.05;;;27.02;;
18973;SDS011;9621;48.690;9.466;2022-08-19T07:23:13;35.63;;;26.67;;
18973;SDS011;9621;48.690;9.466;2022-08-19T07:25:40;34.60;;;25.92;;
18973;SDS011;9621;48.690;9.466;2022-08-19T07:28:08;34.70;;;25.80;;
18973;SDS011;9621;48.690;9.466;2022-08-19T07:30:38;34.85;;;26.60;;
18973;SDS011;9621;48.690;9.466;2022-08-19T07:33:05;36.88;;;26.25;;
18973;SDS011;9621;48.690;9.466;2022-08-19T07:35:34;32.83;;;25.13;;
18973;SDS011;9621;48.690;9.466;2022-08-19T07:38:02;35.45;;;26.88;;
18973;SDS011;9621;48.690;9.466;2022-08-19T07:40:29;36.00;;;26.35;;
18973;SDS011;9621;48.690;9.466;2022-08-19T07:42:56;33.97;;;25.88;;
18973;SDS011;9621;48.690;9.466;2022-08-19T07:45:24;33.05;;;25.70;;
18973;SDS011;9621;48.690;9.466;2022-08-19T07:47:53;35.83;;;25.98;;
18973;SDS011;9621;48.690;9.466;2022-08-19T07:50:21;38.17;;;27.20;;
18973;SDS011;9621;48.690;9.466;2022-08-19T07:52:49;35.95;;;26.08;;
18973;SDS011;9621;48.690;9.466;2022-08-19T07:55:18;37.08;;;27.33;;
18973;SDS011;9621;48.690;9.466;2022-08-19T07:57:47;33.92;;;26.13;;
18973;SDS011;9621;48.690;9.466;2022-08-19T08:00:14;34.97;;;25.35;;
18973;SDS011;9621;48.690;9.466;2022-08-19T08:02:41;34.85;;;26.25;;
18973;SDS011;9621;48.690;9.466;2022-08-19T08:05:09;33.22;;;26.00;;
18973;SDS011;9621;48.690;9.466;2022-08-19T08:07:55;32.75;;;25.52;;
18973;SDS011;9621;48.690;9.466;2022-08-19T08:10:39;34.40;;;26.02;;
18973;SDS011;9621;48.690;9.466;2022-08-19T08:13:06;36.47;;;26.58;;
18973;SDS011;9621;48.690;9.466;2022-08-19T08:15:33;35.70;;;26.42;;
18973;SDS011;9621;48.690;9.466;2022-08-19T08:18:02;36.85;;;25.73;;
18973;SDS011;9621;48.690;9.466;2022-08-19T08:20:29;33.22;;;25.65;;
18973;SDS011;9621;48.690;9.466;2022-08-19T08:22:57;37.13;;;27.08;;
18973;SDS011;9621;48.690;9.466;2022-08-19T08:25:42;38.03;;;26.23;;
18973;SDS011;9621;48.690;9.466;2022-08-19T08:28:09;33.72;;;25.70;;
18973;SDS011;9621;48.690;9.466;2022-08-19T08:30:36;33.10;;;25.98;;
18973;SDS011;9621;48.690;9.466;2022-08-19T08:33:06;34.17;;;25.95;;
18973;SDS011;9621;48.690;9.466;2022-08-19T08:35:33;35.50;;;26.60;;
18973;SDS011;9621;48.690;9.466;2022-08-19T08:38:02;35.35;;;26.30;;
18973;SDS011;9621;48.690;9.466;2022-08-19T08:40:30;33.08;;;25.30;;
18973;SDS011;9621;48.690;9.466;2022-08-19T08:43:06;34.17;;;25.20;;
18973;SDS011;9621;48.690;9.466;2022-08-19T08:45:36;32.28;;;25.60;;
18973;SDS011;9621;48.690;9.466;2022-08-19T08:48:14;31.98;;;24.95;;
18973;SDS011;9621;48.690;9.466;2022-08-19T08:50:46;33.33;;;25.38;;
18973;SDS011;9621;48.690;9.466;2022-08-19T08:53:17;37.88;;;26.25;;
18973;SDS011;9621;48.690;9.466;2022-08-19T08:55:45;30.00;;;24.77;;
18973;SDS011;9621;48.690;9.466;2022-08-19T08:58:14;31.98;;;23.98;;
18973;SDS011;9621;48.690;9.466;2022-08-19T09:00:48;33.90;;;25.33;;
18973;SDS011;9621;48.690;9.466;2022-08-19T09:03:17;34.50;;;25.67;;
18973;SDS011;9621;48.690;9.466;2022-08-19T09:05:49;34.78;;;25.85;;
18973;SDS011;9621;48.690;9.466;2022-08-19T09:08:33;31.67;;;25.33;;
18973;SDS011;9621;48.690;9.466;2022-08-19T09:11:07;30.50;;;24.00;;
18973;SDS011;9621;48.690;9.466;2022-08-19T09:13:38;32.67;;;25.75;;
18973;SDS011;9621;48.690;9.466;2022-08-19T09:16:12;32.53;;;26.05;;
18973;SDS011;9621;48.690;9.466;2022-08-19T09:18:43;38.20;;;25.50;;
18973;SDS011;9621;48.690;9.466;2022-08-19T09:21:12;33.72;;;24.60;;
18973;SDS011;9621;48.690;9.466;2022-08-19T09:23:41;33.30;;;24.95;;
18973;SDS011;9621;48.690;9.466;2022-08-19T09:26:09;33.20;;;24.60;;
18973;SDS011;9621;48.690;9.466;2022-08-19T09:28:39;31.98;;;24.88;;
18973;SDS011;9621;48.690;9.466;2022-08-19T09:31:08;34.08;;;26.45;;
18973;SDS011;9621;48.690;9.466;2022-08-19T09:33:35;37.22;;;24.83;;
18973;SDS011;9621;48.690;9.466;2022-08-19T09:36:04;33.90;;;25.35;;
18973;SDS011;9621;48.690;9.466;2022-08-19T09:38:32;37.42;;;26.48;;
18973;SDS011;9621;48.690;9.466;2022-08-19T09:41:04;33.40;;;25.70;;
18973;SDS011;9621;48.690;9.466;2022-08-19T09:43:32;33.15;;;25.30;;
18973;SDS011;9621;48.690;9.466;2022-08-19T09:46:01;34.70;;;26.17;;
18973;SDS011;9621;48.690;9.466;2022-08-19T09:48:30;35.22;;;25.25;;
18973;SDS011;9621;48.690;9.466;2022-08-19T09:51:02;33.65;;;26.17;;
18973;SDS011;9621;48.690;9.466;2022-08-19T09:53:31;34.72;;;25.70;;
18973;SDS011;9621;48.690;9.466;2022-08-19T09:55:58;34.30;;;26.45;;
18973;SDS011;9621;48.690;9.466;2022-08-19T09:58:27;32.67;;;25.50;;
18973;SDS011;9621;48.690;9.466;2022-08-19T10:00:55;34.78;;;25.38;;
18973;SDS011;9621;48.690;9.466;2022-08-19T10:03:23;36.97;;;27.65;;
18973;SDS011;9621;48.690;9.466;2022-08-19T10:05:50;37.08;;;26.58;;
18973;SDS011;9621;48.690;9.466;2022-08-19T10:08:19;35.78;;;26.15;;
18973;SDS011;9621;48.690;9.466;2022-08-19T10:10:48;37.00;;;25.98;;
18973;SDS011;9621;48.690;9.466;2022-08-19T10:13:17;37.40;;;26.15;;
18973;SDS011;9621;48.690;9.466;2022-08-19T10:15:48;34.83;;;25.58;;
18973;SDS011;9621;48.690;9.466;2022-08-19T10:18:16;33.45;;;24.98;;
18973;SDS011;9621;48.690;9.466;2022-08-19T10:20:44;32.92;;;25.63;;
18973;SDS011;9621;48.690;9.466;2022-08-19T10:23:12;34.42;;;26.50;;
18973;SDS011;9621;48.690;9.466;2022-08-19T10:25:40;34.85;;;25.63;;
18973;SDS011;9621;48.690;9.466;2022-08-19T10:28:08;33.28;;;25.63;;
18973;SDS011;9621;48.690;9.466;2022-08-19T10:30:37;35.28;;;25.95;;
18973;SDS011;9621;48.690;9.466;2022-08-19T10:33:06;35.72;;;27.50;;
18973;SDS011;9621;48.690;9.466;2022-08-19T10:35:33;36.53;;;26.55;;
18973;SDS011;9621;48.690;9.466;2022-08-19T10:38:01;35.38;;;26.10;;
18973;SDS011;9621;48.690;9.466;2022-08-19T10:40:28;36.88;;;27.67;;
18973;SDS011;9621;48.690;9.466;2022-08-19T10:42:55;36.13;;;26.70;;
18973;SDS011;9621;48.690;9.466;2022-08-19T10:45:22;40.00;;;28.67;;
18973;SDS011;9621;48.690;9.466;2022-08-19T10:47:50;36.60;;;27.52;;
18973;SDS011;9621;48.690;9.466;2022-08-19T10:50:19;38.53;;;28.20;;
18973;SDS011;9621;48.690;9.466;2022-08-19T10:53:05;36.25;;;26.33;;
18973;SDS011;9621;48.690;9.466;2022-08-19T10:55:34;33.53;;;25.75;;
18973;SDS011;9621;48.690;9.466;2022-08-19T10:58:19;34.17;;;25.77;;
18973;SDS011;9621;48.690;9.466;2022-08-19T11:00:53;35.95;;;27.38;;
18973;SDS011;9621;48.690;9.466;2022-08-19T11:03:24;35.50;;;26.73;;
18973;SDS011;9621;48.690;9.466;2022-08-19T11:06:00;37.20;;;26.20;;
18973;SDS011;9621;48.690;9.466;2022-08-19T11:08:28;35.60;;;25.75;;
18973;SDS011;9621;48.690;9.466;2022-08-19T11:10:58;33.42;;;25.98;;
18973;SDS011;9621;48.690;9.466;2022-08-19T11:13:28;34.67;;;26.60;;
18973;SDS011;9621;48.690;9.466;2022-08-19T11:15:56;34.50;;;25.90;;
18973;SDS011;9621;48.690;9.466;2022-08-19T11:18:25;34.30;;;26.35;;
18973;SDS011;9621;48.690;9.466;2022-08-19T11:20:52;34.17;;;26.17;;
18973;SDS011;9621;48.690;9.466;2022-08-19T11:23:20;36.60;;;26.65;;
18973;SDS011;9621;48.690;9.466;2022-08-19T11:25:47;34.63;;;26.15;;
18973;SDS011;9621;48.690;9.466;2022-08-19T11:28:15;37.08;;;27.95;;
18973;SDS011;9621;48.690;9.466;2022-08-19T11:30:42;34.70;;;26.13;;
18973;SDS011;9621;48.690;9.466;2022-08-19T11:33:09;33.58;;;25.95;;
18973;SDS011;9621;48.690;9.466;2022-08-19T11:35:38;33.70;;;26.33;;
18973;SDS011;9621;48.690;9.466;2022-08-19T11:38:06;35.03;;;25.98;;
18973;SDS011;9621;48.690;9.466;2022-08-19T11:40:34;34.83;;;25.85;;
18973;SDS011;9621;48.690;9.466;2022-08-19T11:43:01;35.83;;;26.75;;
18973;SDS011;9621;48.690;9.466;2022-08-19T11:45:29;33.97;;;25.55;;
18973;SDS011;9621;48.690;9.466;2022-08-19T11:47:57;35.05;;;26.98;;
18973;SDS011;9621;48.690;9.466;2022-08-19T11:50:24;37.85;;;27.60;;
18973;SDS011;9621;48.690;9.466;2022-08-19T11:52:53;35.67;;;26.88;;
18973;SDS011;9621;48.690;9.466;2022-08-19T11:55:21;35.88;;;26.27;;
18973;SDS011;9621;48.690;9.466;2022-08-19T11:57:50;35.95;;;26.80;;
18973;SDS011;9621;48.690;9.466;2022-08-19T12:00:17;32.88;;;25.20;;
18973;SDS011;9621;48.690;9.466;2022-08-19T12:02:44;33.67;;;25.58;;
18973;SDS011;9621;48.690;9.466;2022-08-19T12:05:12;36.17;;;26.45;;
18973;SDS011;9621;48.690;9.466;2022-08-19T12:07:39;33.42;;;25.15;;
18973;SDS011;9621;48.690;9.466;2022-08-19T12:10:06;33.15;;;25.40;;
18973;SDS011;9621;48.690;9.466;2022-08-19T12:12:34;33.63;;;26.05;;
18973;SDS011;9621;48.690;9.466;2022-08-19T12:15:05;33.38;;;24.67;;
18973;SDS011;9621;48.690;9.466;2022-08-19T12:17:33;37.22;;;24.20;;
18973;SDS011;9621;48.690;9.466;2022-08-19T12:20:00;33.92;;;26.60;;
18973;SDS011;9621;48.690;9.466;2022-08-19T12:22:27;31.38;;;24.90;;
18973;SDS011;9621;48.690;9.466;2022-08-19T12:24:54;35.83;;;25.65;;
18973;SDS011;9621;48.690;9.466;2022-08-19T12:27:21;34.63;;;26.83;;
18973;SDS011;9621;48.690;9.466;2022-08-19T12:29:48;37.97;;;26.45;;
18973;SDS011;9621;48.690;9.466;2022-08-19T12:32:16;33.20;;;25.80;;
18973;SDS011;9621;48.690;9.466;2022-08-19T12:34:43;33.67;;;26.55;;
18973;SDS011;9621;48.690;9.466;2022-08-19T12:37:12;33.40;;;24.42;;
18973;SDS011;9621;48.690;9.466;2022-08-19T12:39:40;33.90;;;25.27;;
18973;SDS011;9621;48.690;9.466;2022-08-19T12:42:08;32.65;;;25.13;;
18973;SDS011;9621;48.690;9.466;2022-08-19T12:44:37;35.88;;;25.80;;
18973;SDS011;9621;48.690;9.466;2022-08-19T12:47:05;32.75;;;24.48;;
18973;SDS011;9621;48.690;9.466;2022-08-19T12:49:34;33.67;;;24.35;;
18973;SDS011;9621;48.690;9.466;2022-08-19T12:52:02;38.05;;;25.67;;
18973;SDS011;9621;48.690;9.466;2022-08-19T12:54:30;33.25;;;25.05;;
18973;SDS011;9621;48.690;9.466;2022-08-19T12:56:57;33.28;;;23.92;;
18973;SDS011;9621;48.690;9.466;2022-08-19T12:59:24;32.08;;;25.20;;
18973;SDS011;9621;48.690;9.466;2022-08-19T13:01:51;34.95;;;25.40;;
18973;SDS011;9621;48.690;9.466;2022-08-19T13:04:18;33.90;;;24.98;;
18973;SDS011;9621;48.690;9.466;2022-08-19T13:06:47;31.90;;;25.17;;
18973;SDS011;9621;48.690;9.466;2022-08-19T13:09:14;35.80;;;26.95;;
18973;SDS011;9621;48.690;9.466;2022-08-19T13:11:41;33.83;;;25.77;;
18973;SDS011;9621;48.690;9.466;2022-08-19T13:14:09;33.20;;;25.85;;
18973;SDS011;9621;48.690;9.466;2022-08-19T13:16:36;36.17;;;26.92;;
18973;SDS011;9621;48.690;9.466;2022-08-19T13:19:03;33.88;;;26.83;;
18973;SDS011;9621;48.690;9.466;2022-08-19T13:21:30;34.45;;;26.67;;
18973;SDS011;9621;48.690;9.466;2022-08-19T13:23:59;33.85;;;25.92;;
18973;SDS011;9621;48.690;9.466;2022-08-19T13:26:26;34.97;;;25.60;;
18973;SDS011;9621;48.690;9.466;2022-08-19T13:28:53;33.85;;;25.50;;
18973;SDS011;9621;48.690;9.466;2022-08-19T13:31:39;32.13;;;24.40;;
18973;SDS011;9621;48.690;9.466;2022-08-19T13:34:26;37.72;;;25.63;;
18973;SDS011;9621;48.690;9.466;2022-08-19T13:36:55;34.08;;;25.05;;
18973;SDS011;9621;48.690;9.466;2022-08-19T13:39:24;32.85;;;24.63;;
18973;SDS011;9621;48.690;9.466;2022-08-19T13:41:52;33.00;;;25.13;;
18973;SDS011;9621;48.690;9.466;2022-08-19T13:44:19;31.17;;;24.38;;
18973;SDS011;9621;48.690;9.466;2022-08-19T13:46:47;30.80;;;24.98;;
18973;SDS011;9621;48.690;9.466;2022-08-19T13:49:18;33.90;;;25.02;;
18973;SDS011;9621;48.690;9.466;2022-08-19T13:51:45;34.67;;;26.65;;
18973;SDS011;9621;48.690;9.466;2022-08-19T13:54:12;37.17;;;27.15;;
18973;SDS011;9621;48.690;9.466;2022-08-19T13:56:42;33.63;;;26.02;;
18973;SDS011;9621;48.690;9.466;2022-08-19T13:59:11;29.73;;;23.92;;
18973;SDS011;9621;48.690;9.466;2022-08-19T14:01:39;33.83;;;24.50;;
18973;SDS011;9621;48.690;9.466;2022-08-19T14:04:07;31.58;;;24.48;;
18973;SDS011;9621;48.690;9.466;2022-08-19T14:06:35;37.15;;;26.42;;
18973;SDS011;9621;48.690;9.466;2022-08-19T14:09:02;33.67;;;25.98;;
18973;SDS011;9621;48.690;9.466;2022-08-19T14:11:30;30.88;;;24.50;;
18973;SDS011;9621;48.690;9.466;2022-08-19T14:13:59;33.72;;;26.13;;
18973;SDS011;9621;48.690;9.466;2022-08-19T14:16:26;33.78;;;26.00;;
18973;SDS011;9621;48.690;9.466;2022-08-19T14:18:55;30.92;;;24.63;;
18973;SDS011;9621;48.690;9.466;2022-08-19T14:21:22;30.77;;;24.13;;
18973;SDS011;9621;48.690;9.466;2022-08-19T14:23:50;33.60;;;24.85;;
18973;SDS011;9621;48.690;9.466;2022-08-19T14:26:17;32.67;;;23.92;;
18973;SDS011;9621;48.690;9.466;2022-08-19T14:28:46;34.35;;;25.05;;
18973;SDS011;9621;48.690;9.466;2022-08-19T14:31:16;32.92;;;25.45;;
18973;SDS011;9621;48.690;9.466;2022-08-19T14:33:44;32.70;;;23.65;;
18973;SDS011;9621;48.690;9.466;2022-08-19T14:36:12;32.47;;;24.08;;
18973;SDS011;9621;48.690;9.466;2022-08-19T14:38:41;30.48;;;23.50;;
18973;SDS011;9621;48.690;9.466;2022-08-19T14:41:09;30.30;;;23.80;;
18973;SDS011;9621;48.690;9.466;2022-08-19T14:43:38;28.13;;;22.95;;